Terminal Aerodrome Forecast
Issued by NWS Twin Cities, MN

Home | Current Version | Previous Version | Graphics & Text | Print | Product List | Glossary On
Versions: 1 2 3 4 5 6 7 8 9 10 11 12 13 14 15 16 17 18 19 20 21 22 23
000
FTUS43 KMPX 240500
TAFMSP
TAF
KMSP 240520Z 2406/2512 34011KT P6SM BKN018 OVC025
     FM240700 33010KT P6SM OVC015
     FM241300 33007KT 6SM BR OVC009
     FM241800 32008KT P6SM OVC015
     FM250400 23007KT P6SM SCT020 BKN100=

USA.gov is the U.S. government's official web portal to all federal, state and local government web resources and services.